sensor_id;sensor_type;location;lat;lon;timestamp;pressure;altitude;pressure_sealevel;temperature;humidity
4767;BME280;2397;53.576;9.746;2023-09-08T00:02:27;102093.72;;;19.28;72.27
4767;BME280;2397;53.576;9.746;2023-09-08T00:04:55;102101.53;;;19.22;72.99
4767;BME280;2397;53.576;9.746;2023-09-08T00:07:21;102096.19;;;19.22;72.96
4767;BME280;2397;53.576;9.746;2023-09-08T00:09:49;102089.19;;;19.21;72.24
4767;BME280;2397;53.576;9.746;2023-09-08T00:12:16;102086.88;;;19.26;71.63
4767;BME280;2397;53.576;9.746;2023-09-08T00:14:43;102085.19;;;19.25;71.53
4767;BME280;2397;53.576;9.746;2023-09-08T00:17:10;102081.75;;;19.39;70.15
4767;BME280;2397;53.576;9.746;2023-09-08T00:19:38;102077.38;;;19.46;69.46
4767;BME280;2397;53.576;9.746;2023-09-08T00:22:05;102069.28;;;19.54;68.43
4767;BME280;2397;53.576;9.746;2023-09-08T00:24:34;102062.03;;;19.62;66.88
4767;BME280;2397;53.576;9.746;2023-09-08T00:27:01;102068.13;;;19.79;66.66
4767;BME280;2397;53.576;9.746;2023-09-08T00:29:28;102067.44;;;19.77;67.26
4767;BME280;2397;53.576;9.746;2023-09-08T00:31:55;102064.13;;;19.75;67.52
4767;BME280;2397;53.576;9.746;2023-09-08T00:34:22;102064.47;;;19.72;68.11
4767;BME280;2397;53.576;9.746;2023-09-08T00:36:48;102061.81;;;19.72;67.61
4767;BME280;2397;53.576;9.746;2023-09-08T00:39:16;102063.38;;;19.81;66.72
4767;BME280;2397;53.576;9.746;2023-09-08T00:41:43;102058.69;;;19.83;65.32
4767;BME280;2397;53.576;9.746;2023-09-08T00:44:10;102054.22;;;19.98;64.59
4767;BME280;2397;53.576;9.746;2023-09-08T00:46:38;102044.63;;;20.26;61.44
4767;BME280;2397;53.576;9.746;2023-09-08T00:49:06;102039.09;;;20.42;61.00
4767;BME280;2397;53.576;9.746;2023-09-08T00:51:32;102038.19;;;20.50;60.42
4767;BME280;2397;53.576;9.746;2023-09-08T00:54:00;102044.66;;;20.55;60.74
4767;BME280;2397;53.576;9.746;2023-09-08T00:56:29;102041.69;;;20.50;61.52
4767;BME280;2397;53.576;9.746;2023-09-08T00:58:56;102041.59;;;20.44;61.05
4767;BME280;2397;53.576;9.746;2023-09-08T01:01:23;102041.59;;;20.44;61.15
4767;BME280;2397;53.576;9.746;2023-09-08T01:03:49;102043.06;;;20.46;60.96
4767;BME280;2397;53.576;9.746;2023-09-08T01:06:16;102037.72;;;20.46;61.58
4767;BME280;2397;53.576;9.746;2023-09-08T01:08:44;102039.31;;;20.55;60.25
4767;BME280;2397;53.576;9.746;2023-09-08T01:11:11;102043.91;;;20.61;60.23
4767;BME280;2397;53.576;9.746;2023-09-08T01:13:38;102044.47;;;20.57;60.53
4767;BME280;2397;53.576;9.746;2023-09-08T01:16:04;102044.19;;;20.52;61.73
4767;BME280;2397;53.576;9.746;2023-09-08T01:18:31;102041.31;;;20.53;60.92
4767;BME280;2397;53.576;9.746;2023-09-08T01:21:52;102051.31;;;20.59;60.23
4767;BME280;2397;53.576;9.746;2023-09-08T01:26:59;102045.56;;;20.62;60.17
4767;BME280;2397;53.576;9.746;2023-09-08T01:29:27;102044.47;;;20.57;60.68
4767;BME280;2397;53.576;9.746;2023-09-08T01:31:56;102049.94;;;20.63;59.87
4767;BME280;2397;53.576;9.746;2023-09-08T01:34:25;102048.91;;;20.50;61.91
4767;BME280;2397;53.576;9.746;2023-09-08T01:36:52;102042.44;;;20.44;61.15
4767;BME280;2397;53.576;9.746;2023-09-08T01:39:19;102040.75;;;20.43;60.99
4767;BME280;2397;53.576;9.746;2023-09-08T01:41:46;102035.78;;;20.40;61.96
4767;BME280;2397;53.576;9.746;2023-09-08T01:44:13;102031.91;;;20.43;60.67
4767;BME280;2397;53.576;9.746;2023-09-08T01:46:40;102029.47;;;20.48;60.14
4767;BME280;2397;53.576;9.746;2023-09-08T01:49:07;102034.66;;;20.49;60.36
4767;BME280;2397;53.576;9.746;2023-09-08T01:51:35;102031.31;;;20.47;60.85
4767;BME280;2397;53.576;9.746;2023-09-08T01:54:01;102025.50;;;20.44;60.89
4767;BME280;2397;53.576;9.746;2023-09-08T01:56:28;102030.78;;;20.37;61.09
4767;BME280;2397;53.576;9.746;2023-09-08T01:58:55;102032.34;;;20.32;61.75
4767;BME280;2397;53.576;9.746;2023-09-08T02:01:21;102030.66;;;20.31;61.01
4767;BME280;2397;53.576;9.746;2023-09-08T02:03:49;102036.41;;;20.28;62.13
4767;BME280;2397;53.576;9.746;2023-09-08T02:06:15;102033.41;;;20.23;62.29
4767;BME280;2397;53.576;9.746;2023-09-08T02:08:42;102029.25;;;20.20;61.74
4767;BME280;2397;53.576;9.746;2023-09-08T02:11:08;102034.97;;;20.17;62.97
4767;BME280;2397;53.576;9.746;2023-09-08T02:13:35;102039.09;;;20.05;64.62
4767;BME280;2397;53.576;9.746;2023-09-08T02:16:01;102039.53;;;19.94;65.23
4767;BME280;2397;53.576;9.746;2023-09-08T02:18:29;102035.25;;;19.85;66.16
4767;BME280;2397;53.576;9.746;2023-09-08T02:20:55;102038.78;;;19.63;67.03
4767;BME280;2397;53.576;9.746;2023-09-08T02:23:22;102034.97;;;19.57;67.42
4767;BME280;2397;53.576;9.746;2023-09-08T02:25:48;102038.88;;;19.47;67.83
4767;BME280;2397;53.576;9.746;2023-09-08T02:28:15;102040.97;;;19.37;68.56
4767;BME280;2397;53.576;9.746;2023-09-08T02:30:42;102041.53;;;19.24;69.11
4767;BME280;2397;53.576;9.746;2023-09-08T02:33:08;102041.50;;;19.16;69.54
4767;BME280;2397;53.576;9.746;2023-09-08T02:35:37;102042.75;;;19.06;69.69
4767;BME280;2397;53.576;9.746;2023-09-08T02:38:05;102043.25;;;19.01;69.65
4767;BME280;2397;53.576;9.746;2023-09-08T02:40:32;102037.13;;;18.93;70.19
4767;BME280;2397;53.576;9.746;2023-09-08T02:43:01;102042.13;;;18.96;70.17
4767;BME280;2397;53.576;9.746;2023-09-08T02:45:29;102031.78;;;18.93;70.02
4767;BME280;2397;53.576;9.746;2023-09-08T02:47:56;102045.81;;;18.95;70.15
4767;BME280;2397;53.576;9.746;2023-09-08T02:50:22;102039.94;;;18.99;69.76
4767;BME280;2397;53.576;9.746;2023-09-08T02:52:49;102039.44;;;19.04;69.27
4767;BME280;2397;53.576;9.746;2023-09-08T02:55:16;102035.44;;;18.92;69.97
4767;BME280;2397;53.576;9.746;2023-09-08T02:57:42;102031.50;;;18.80;70.15
4767;BME280;2397;53.576;9.746;2023-09-08T03:00:09;102028.50;;;18.75;70.53
4767;BME280;2397;53.576;9.746;2023-09-08T03:02:36;102032.53;;;18.71;70.97
4767;BME280;2397;53.576;9.746;2023-09-08T03:05:03;102021.81;;;18.79;70.30
4767;BME280;2397;53.576;9.746;2023-09-08T03:07:30;102023.34;;;18.73;70.71
4767;BME280;2397;53.576;9.746;2023-09-08T03:09:59;102033.72;;;18.60;71.42
4767;BME280;2397;53.576;9.746;2023-09-08T03:12:26;102015.84;;;18.61;71.03
4767;BME280;2397;53.576;9.746;2023-09-08T03:14:54;102023.91;;;18.53;71.59
4767;BME280;2397;53.576;9.746;2023-09-08T03:17:21;102020.69;;;18.65;71.36
4767;BME280;2397;53.576;9.746;2023-09-08T03:19:48;102018.34;;;18.62;71.43
4767;BME280;2397;53.576;9.746;2023-09-08T03:22:15;102020.88;;;18.48;71.82
4767;BME280;2397;53.576;9.746;2023-09-08T03:24:41;102010.56;;;18.37;72.34
4767;BME280;2397;53.576;9.746;2023-09-08T03:27:08;102015.91;;;18.21;73.33
4767;BME280;2397;53.576;9.746;2023-09-08T03:29:35;102013.56;;;18.18;73.08
4767;BME280;2397;53.576;9.746;2023-09-08T03:32:01;102007.94;;;18.05;73.80
4767;BME280;2397;53.576;9.746;2023-09-08T03:34:28;102007.94;;;18.05;73.93
4767;BME280;2397;53.576;9.746;2023-09-08T03:36:55;102008.25;;;18.02;74.08
4767;BME280;2397;53.576;9.746;2023-09-08T03:39:22;102009.25;;;17.93;74.71
4767;BME280;2397;53.576;9.746;2023-09-08T03:41:49;102010.44;;;17.90;75.07
4767;BME280;2397;53.576;9.746;2023-09-08T03:44:15;102011.28;;;17.91;75.23
4767;BME280;2397;53.576;9.746;2023-09-08T03:46:42;102005.25;;;17.89;75.67
4767;BME280;2397;53.576;9.746;2023-09-08T03:49:08;102001.09;;;17.86;75.76
4767;BME280;2397;53.576;9.746;2023-09-08T03:51:36;101997.91;;;17.91;75.49
4767;BME280;2397;53.576;9.746;2023-09-08T03:54:03;102000.59;;;17.91;75.59
4767;BME280;2397;53.576;9.746;2023-09-08T03:56:29;102007.09;;;17.88;75.77
4767;BME280;2397;53.576;9.746;2023-09-08T03:58:56;102001.75;;;17.88;75.61
4767;BME280;2397;53.576;9.746;2023-09-08T04:01:23;102001.94;;;17.79;75.83
4767;BME280;2397;53.576;9.746;2023-09-08T04:03:50;102007.94;;;17.73;76.62
4767;BME280;2397;53.576;9.746;2023-09-08T04:06:17;101999.75;;;17.74;76.14
4767;BME280;2397;53.576;9.746;2023-09-08T04:08:45;101997.56;;;17.70;76.45
4767;BME280;2397;53.576;9.746;2023-09-08T04:11:11;101993.56;;;17.66;76.52
4767;BME280;2397;53.576;9.746;2023-09-08T04:13:38;101992.25;;;17.54;76.95
4767;BME280;2397;53.576;9.746;2023-09-08T04:16:04;101995.06;;;17.44;77.42
4767;BME280;2397;53.576;9.746;2023-09-08T04:18:31;101988.88;;;17.52;77.29
4767;BME280;2397;53.576;9.746;2023-09-08T04:20:58;101989.56;;;17.46;77.85
4767;BME280;2397;53.576;9.746;2023-09-08T04:23:25;101984.22;;;17.46;77.52
4767;BME280;2397;53.576;9.746;2023-09-08T04:25:51;101985.84;;;17.39;77.50
4767;BME280;2397;53.576;9.746;2023-09-08T04:28:18;101981.50;;;17.30;77.79
4767;BME280;2397;53.576;9.746;2023-09-08T04:30:44;101976.31;;;17.28;77.99
4767;BME280;2397;53.576;9.746;2023-09-08T04:33:11;101974.97;;;17.24;78.36
4767;BME280;2397;53.576;9.746;2023-09-08T04:35:38;101974.16;;;17.24;78.54
4767;BME280;2397;53.576;9.746;2023-09-08T04:38:05;101974.53;;;17.45;77.67
4767;BME280;2397;53.576;9.746;2023-09-08T04:40:32;101976.88;;;17.48;77.47
4767;BME280;2397;53.576;9.746;2023-09-08T04:42:59;101972.38;;;17.56;77.41
4767;BME280;2397;53.576;9.746;2023-09-08T04:45:25;101969.72;;;17.64;77.19
4767;BME280;2397;53.576;9.746;2023-09-08T04:47:52;101970.22;;;17.76;76.13
4767;BME280;2397;53.576;9.746;2023-09-08T04:50:20;101963.22;;;17.83;76.10
4767;BME280;2397;53.576;9.746;2023-09-08T04:52:46;101964.53;;;17.95;75.17
4767;BME280;2397;53.576;9.746;2023-09-08T04:55:14;101964.16;;;18.06;74.43
4767;BME280;2397;53.576;9.746;2023-09-08T04:57:41;101959.81;;;18.13;74.23
4767;BME280;2397;53.576;9.746;2023-09-08T05:00:08;101958.13;;;18.20;73.69
4767;BME280;2397;53.576;9.746;2023-09-08T05:02:34;101954.41;;;18.29;73.45
4767;BME280;2397;53.576;9.746;2023-09-08T05:05:02;101954.44;;;18.37;72.91
4767;BME280;2397;53.576;9.746;2023-09-08T05:07:31;101952.75;;;18.36;72.70
4767;BME280;2397;53.576;9.746;2023-09-08T05:09:58;101946.41;;;18.45;72.21
4767;BME280;2397;53.576;9.746;2023-09-08T05:12:28;101951.75;;;18.45;72.54
4767;BME280;2397;53.576;9.746;2023-09-08T05:14:55;101954.03;;;18.56;72.08
4767;BME280;2397;53.576;9.746;2023-09-08T05:17:27;101954.56;;;18.51;71.86
4767;BME280;2397;53.576;9.746;2023-09-08T05:19:53;101958.56;;;18.55;71.78
4767;BME280;2397;53.576;9.746;2023-09-08T05:22:20;101957.03;;;18.61;71.28
4767;BME280;2397;53.576;9.746;2023-09-08T05:24:48;101957.31;;;18.66;71.28
4767;BME280;2397;53.576;9.746;2023-09-08T05:27:15;101954.13;;;18.70;70.79
4767;BME280;2397;53.576;9.746;2023-09-08T05:29:42;101953.97;;;18.72;70.85
4767;BME280;2397;53.576;9.746;2023-09-08T05:32:09;101953.13;;;18.71;70.87
4767;BME280;2397;53.576;9.746;2023-09-08T05:34:37;101961.81;;;18.73;71.10
4767;BME280;2397;53.576;9.746;2023-09-08T05:37:04;101955.94;;;18.78;70.70
4767;BME280;2397;53.576;9.746;2023-09-08T05:39:31;101937.69;;;18.81;70.39
4767;BME280;2397;53.576;9.746;2023-09-08T05:41:58;101949.25;;;18.82;70.69
4767;BME280;2397;53.576;9.746;2023-09-08T05:44:25;101944.38;;;18.85;70.46
4767;BME280;2397;53.576;9.746;2023-09-08T05:46:53;101941.22;;;18.82;70.55
4767;BME280;2397;53.576;9.746;2023-09-08T05:49:21;101939.53;;;18.81;70.37
4767;BME280;2397;53.576;9.746;2023-09-08T05:51:48;101936.84;;;18.89;71.16
4767;BME280;2397;53.576;9.746;2023-09-08T05:54:15;101934.50;;;18.86;70.84
4767;BME280;2397;53.576;9.746;2023-09-08T05:56:43;101936.84;;;18.89;71.23
4767;BME280;2397;53.576;9.746;2023-09-08T05:59:10;101937.19;;;18.86;71.19
4767;BME280;2397;53.576;9.746;2023-09-08T06:01:38;101934.16;;;18.89;71.22
4767;BME280;2397;53.576;9.746;2023-09-08T06:04:07;101944.47;;;18.92;70.53
4767;BME280;2397;53.576;9.746;2023-09-08T06:06:34;101943.66;;;18.91;71.11
4767;BME280;2397;53.576;9.746;2023-09-08T06:09:00;101954.16;;;19.01;70.94
4767;BME280;2397;53.576;9.746;2023-09-08T06:11:27;101951.53;;;18.93;71.37
4767;BME280;2397;53.576;9.746;2023-09-08T06:13:54;101965.19;;;18.98;71.19
4767;BME280;2397;53.576;9.746;2023-09-08T06:16:28;101963.78;;;19.10;70.88
4767;BME280;2397;53.576;9.746;2023-09-08T06:18:55;101963.09;;;19.16;70.50
4767;BME280;2397;53.576;9.746;2023-09-08T06:21:22;101964.22;;;19.21;70.57
4767;BME280;2397;53.576;9.746;2023-09-08T06:23:49;101963.34;;;19.29;70.37
4767;BME280;2397;53.576;9.746;2023-09-08T06:26:16;101970.00;;;19.33;70.84
4767;BME280;2397;53.576;9.746;2023-09-08T06:28:42;101963.25;;;19.45;69.44
4767;BME280;2397;53.576;9.746;2023-09-08T06:31:10;101964.03;;;19.53;69.81
4767;BME280;2397;53.576;9.746;2023-09-08T06:33:39;101968.19;;;19.56;69.57
4767;BME280;2397;53.576;9.746;2023-09-08T06:36:07;101954.72;;;19.64;69.62
4767;BME280;2397;53.576;9.746;2023-09-08T06:38:33;101967.09;;;19.65;69.23
4767;BME280;2397;53.576;9.746;2023-09-08T06:41:08;101950.59;;;19.76;68.79
4767;BME280;2397;53.576;9.746;2023-09-08T06:43:35;101953.69;;;19.87;68.34
4767;BME280;2397;53.576;9.746;2023-09-08T06:46:07;101961.63;;;19.95;69.23
4767;BME280;2397;53.576;9.746;2023-09-08T06:48:34;101966.63;;;19.98;68.46
4767;BME280;2397;53.576;9.746;2023-09-08T06:51:01;101969.59;;;20.03;69.30
4767;BME280;2397;53.576;9.746;2023-09-08T06:53:28;101969.22;;;20.07;68.75
4767;BME280;2397;53.576;9.746;2023-09-08T06:55:55;101960.28;;;20.14;68.21
4767;BME280;2397;53.576;9.746;2023-09-08T06:58:21;101964.56;;;20.23;68.08
4767;BME280;2397;53.576;9.746;2023-09-08T07:00:49;101957.63;;;20.29;66.95
4767;BME280;2397;53.576;9.746;2023-09-08T07:03:16;101961.69;;;20.39;66.50
4767;BME280;2397;53.576;9.746;2023-09-08T07:05:43;101953.28;;;20.42;67.16
4767;BME280;2397;53.576;9.746;2023-09-08T07:08:11;101953.47;;;20.55;66.55
4767;BME280;2397;53.576;9.746;2023-09-08T07:10:37;101946.13;;;20.64;66.59
4767;BME280;2397;53.576;9.746;2023-09-08T07:13:05;101948.06;;;20.70;65.59
4767;BME280;2397;53.576;9.746;2023-09-08T07:15:32;101955.56;;;20.74;65.58
4767;BME280;2397;53.576;9.746;2023-09-08T07:17:58;101946.38;;;20.83;65.32
4767;BME280;2397;53.576;9.746;2023-09-08T07:20:25;101954.81;;;20.95;65.28
4767;BME280;2397;53.576;9.746;2023-09-08T07:22:52;101951.94;;;20.96;65.28
4767;BME280;2397;53.576;9.746;2023-09-08T07:25:19;101954.03;;;21.01;65.00
4767;BME280;2397;53.576;9.746;2023-09-08T07:27:46;101948.41;;;21.10;65.20
4767;BME280;2397;53.576;9.746;2023-09-08T07:30:12;101946.38;;;21.19;63.91
4767;BME280;2397;53.576;9.746;2023-09-08T07:32:40;101948.13;;;21.26;64.54
4767;BME280;2397;53.576;9.746;2023-09-08T07:35:07;101957.09;;;21.33;63.98
4767;BME280;2397;53.576;9.746;2023-09-08T07:37:41;101945.38;;;21.41;63.07
4767;BME280;2397;53.576;9.746;2023-09-08T07:40:11;101955.88;;;21.57;62.84
4767;BME280;2397;53.576;9.746;2023-09-08T07:42:38;101955.94;;;21.63;63.50
4767;BME280;2397;53.576;9.746;2023-09-08T07:45:04;101953.84;;;21.65;62.89
4767;BME280;2397;53.576;9.746;2023-09-08T07:47:31;101961.25;;;21.78;61.94
4767;BME280;2397;53.576;9.746;2023-09-08T07:52:43;101968.03;;;22.01;60.41
4767;BME280;2397;53.576;9.746;2023-09-08T07:55:09;101972.16;;;21.97;61.80
4767;BME280;2397;53.576;9.746;2023-09-08T07:57:36;101981.88;;;21.98;61.52
4767;BME280;2397;53.576;9.746;2023-09-08T08:00:03;101964.97;;;22.04;59.86
4767;BME280;2397;53.576;9.746;2023-09-08T08:02:41;101974.06;;;22.03;60.50
4767;BME280;2397;53.576;9.746;2023-09-08T08:05:08;101969.16;;;22.13;60.82
4767;BME280;2397;53.576;9.746;2023-09-08T08:07:35;101971.75;;;22.28;61.87
4767;BME280;2397;53.576;9.746;2023-09-08T08:10:02;101970.50;;;22.24;60.61
4767;BME280;2397;53.576;9.746;2023-09-08T08:12:29;101959.47;;;22.19;61.15
4767;BME280;2397;53.576;9.746;2023-09-08T08:14:56;101952.09;;;22.27;61.05
4767;BME280;2397;53.576;9.746;2023-09-08T08:17:22;101963.88;;;22.26;61.58
4767;BME280;2397;53.576;9.746;2023-09-08T08:19:49;101954.38;;;22.30;61.51
4767;BME280;2397;53.576;9.746;2023-09-08T08:22:15;101973.59;;;22.27;62.99
4767;BME280;2397;53.576;9.746;2023-09-08T08:24:43;101968.22;;;22.27;62.25
4767;BME280;2397;53.576;9.746;2023-09-08T08:27:10;101963.88;;;22.26;62.79
4767;BME280;2397;53.576;9.746;2023-09-08T08:29:37;101958.50;;;22.26;60.58
4767;BME280;2397;53.576;9.746;2023-09-08T08:32:03;101959.75;;;22.30;61.73
4767;BME280;2397;53.576;9.746;2023-09-08T08:34:30;101958.34;;;22.34;61.55
4767;BME280;2397;53.576;9.746;2023-09-08T08:36:57;101958.97;;;22.36;64.51
4767;BME280;2397;53.576;9.746;2023-09-08T08:39:23;101945.94;;;22.40;61.36
4767;BME280;2397;53.576;9.746;2023-09-08T08:41:50;101954.03;;;22.40;62.58
4767;BME280;2397;53.576;9.746;2023-09-08T08:44:17;101948.63;;;22.40;61.79
4767;BME280;2397;53.576;9.746;2023-09-08T08:46:46;101961.56;;;22.51;62.74
4767;BME280;2397;53.576;9.746;2023-09-08T08:49:15;101957.84;;;22.52;64.71
4767;BME280;2397;53.576;9.746;2023-09-08T08:51:45;101949.47;;;22.40;61.20
4767;BME280;2397;53.576;9.746;2023-09-08T08:54:13;101957.78;;;22.45;62.43
4767;BME280;2397;53.576;9.746;2023-09-08T08:56:40;101955.59;;;22.55;61.41
4767;BME280;2397;53.576;9.746;2023-09-08T08:59:09;101951.06;;;22.62;61.46
4767;BME280;2397;53.576;9.746;2023-09-08T09:01:36;101952.34;;;22.66;61.51
4767;BME280;2397;53.576;9.746;2023-09-08T09:04:05;101958.00;;;22.84;61.89
4767;BME280;2397;53.576;9.746;2023-09-08T09:06:32;101947.44;;;22.89;60.79
4767;BME280;2397;53.576;9.746;2023-09-08T09:09:00;101942.69;;;22.91;60.82
4767;BME280;2397;53.576;9.746;2023-09-08T09:11:27;101944.16;;;23.00;62.04
4767;BME280;2397;53.576;9.746;2023-09-08T09:13:53;101942.50;;;22.99;60.19
4767;BME280;2397;53.576;9.746;2023-09-08T09:16:20;101944.38;;;23.05;58.67
4767;BME280;2397;53.576;9.746;2023-09-08T09:18:54;101939.63;;;23.08;59.29
4767;BME280;2397;53.576;9.746;2023-09-08T09:21:22;101948.56;;;23.15;62.13
4767;BME280;2397;53.576;9.746;2023-09-08T09:23:49;101937.38;;;23.18;60.02
4767;BME280;2397;53.576;9.746;2023-09-08T09:26:26;101935.38;;;23.33;58.94
4767;BME280;2397;53.576;9.746;2023-09-08T09:28:52;101920.00;;;23.33;57.83
4767;BME280;2397;53.576;9.746;2023-09-08T09:31:23;101932.25;;;23.49;58.61
4767;BME280;2397;53.576;9.746;2023-09-08T09:34:02;101930.41;;;23.49;58.75
4767;BME280;2397;53.576;9.746;2023-09-08T09:36:32;101931.44;;;23.55;58.89
4767;BME280;2397;53.576;9.746;2023-09-08T09:38:59;101925.81;;;23.50;59.02
4767;BME280;2397;53.576;9.746;2023-09-08T09:41:29;101930.19;;;23.57;59.82
4767;BME280;2397;53.576;9.746;2023-09-08T09:43:57;101933.50;;;23.53;59.12
4767;BME280;2397;53.576;9.746;2023-09-08T09:46:23;101924.59;;;23.59;58.46
4767;BME280;2397;53.576;9.746;2023-09-08T09:48:51;101928.34;;;23.64;58.20
4767;BME280;2397;53.576;9.746;2023-09-08T09:51:20;101922.53;;;23.74;59.75
4767;BME280;2397;53.576;9.746;2023-09-08T09:53:49;101919.84;;;23.74;58.67
4767;BME280;2397;53.576;9.746;2023-09-08T09:56:19;101909.66;;;23.76;58.14
4767;BME280;2397;53.576;9.746;2023-09-08T09:58:46;101916.72;;;23.83;58.08
4767;BME280;2397;53.576;9.746;2023-09-08T10:01:14;101909.66;;;23.89;58.38
4767;BME280;2397;53.576;9.746;2023-09-08T10:03:40;101909.06;;;23.93;57.46
4767;BME280;2397;53.576;9.746;2023-09-08T10:06:08;101912.16;;;23.97;58.23
4767;BME280;2397;53.576;9.746;2023-09-08T10:08:35;101910.69;;;24.01;57.03
4767;BME280;2397;53.576;9.746;2023-09-08T10:11:08;101912.97;;;24.17;57.63
4767;BME280;2397;53.576;9.746;2023-09-08T10:13:39;101898.84;;;24.15;56.50
4767;BME280;2397;53.576;9.746;2023-09-08T10:16:08;101912.97;;;24.17;58.21
4767;BME280;2397;53.576;9.746;2023-09-08T10:18:35;101906.31;;;24.19;57.03
4767;BME280;2397;53.576;9.746;2023-09-08T10:21:04;101902.53;;;24.27;56.40
4767;BME280;2397;53.576;9.746;2023-09-08T10:26:03;101890.28;;;24.37;56.37
4767;BME280;2397;53.576;9.746;2023-09-08T10:28:32;101890.03;;;24.45;55.88
4767;BME280;2397;53.576;9.746;2023-09-08T10:31:00;101890.63;;;24.54;56.22
4767;BME280;2397;53.576;9.746;2023-09-08T10:33:28;101885.00;;;24.62;57.04
4767;BME280;2397;53.576;9.746;2023-09-08T10:35:57;101890.97;;;24.70;57.20
4767;BME280;2397;53.576;9.746;2023-09-08T10:38:26;101884.91;;;24.75;56.21
4767;BME280;2397;53.576;9.746;2023-09-08T10:43:46;101881.84;;;25.02;55.28
4767;BME280;2397;53.576;9.746;2023-09-08T10:46:28;101877.16;;;25.16;56.00
4767;BME280;2397;53.576;9.746;2023-09-08T10:49:07;101879.16;;;25.27;56.03
4767;BME280;2397;53.576;9.746;2023-09-08T10:51:34;101866.53;;;25.52;54.45
4767;BME280;2397;53.576;9.746;2023-09-08T10:54:01;101874.69;;;25.70;54.74
4767;BME280;2397;53.576;9.746;2023-09-08T10:56:47;101871.56;;;25.91;53.39
4767;BME280;2397;53.576;9.746;2023-09-08T10:59:16;101861.75;;;26.15;52.77
4767;BME280;2397;53.576;9.746;2023-09-08T11:01:43;101872.72;;;26.38;53.54
4767;BME280;2397;53.576;9.746;2023-09-08T11:04:11;101852.84;;;26.62;51.66
4767;BME280;2397;53.576;9.746;2023-09-08T11:06:39;101867.34;;;26.97;51.52
4767;BME280;2397;53.576;9.746;2023-09-08T11:09:09;101854.72;;;27.43;49.54
4767;BME280;2397;53.576;9.746;2023-09-08T11:11:36;101844.72;;;27.78;49.73
4767;BME280;2397;53.576;9.746;2023-09-08T11:14:03;101826.41;;;28.08;47.57
4767;BME280;2397;53.576;9.746;2023-09-08T11:16:30;101830.22;;;28.35;47.97
4767;BME280;2397;53.576;9.746;2023-09-08T11:18:59;101822.50;;;28.55;46.42
4767;BME280;2397;53.576;9.746;2023-09-08T11:21:31;101814.06;;;28.85;45.55
4767;BME280;2397;53.576;9.746;2023-09-08T11:24:05;101810.16;;;28.92;45.35
4767;BME280;2397;53.576;9.746;2023-09-08T11:26:33;101808.38;;;29.15;45.20
4767;BME280;2397;53.576;9.746;2023-09-08T11:29:00;101801.44;;;29.24;45.22
4767;BME280;2397;53.576;9.746;2023-09-08T11:31:27;101795.16;;;29.40;44.50
4767;BME280;2397;53.576;9.746;2023-09-08T11:33:55;101791.94;;;29.59;44.18
4767;BME280;2397;53.576;9.746;2023-09-08T11:36:22;101778.63;;;29.79;42.85
4767;BME280;2397;53.576;9.746;2023-09-08T11:38:48;101770.56;;;29.68;42.74
4767;BME280;2397;53.576;9.746;2023-09-08T11:41:16;101769.69;;;29.84;42.00
4767;BME280;2397;53.576;9.746;2023-09-08T11:43:43;101772.28;;;29.95;42.18
4767;BME280;2397;53.576;9.746;2023-09-08T11:46:10;101776.66;;;30.18;42.32
4767;BME280;2397;53.576;9.746;2023-09-08T11:48:37;101783.09;;;30.12;43.31
4767;BME280;2397;53.576;9.746;2023-09-08T11:51:07;101778.22;;;30.14;42.03
4767;BME280;2397;53.576;9.746;2023-09-08T11:53:35;101779.28;;;30.13;42.12
4767;BME280;2397;53.576;9.746;2023-09-08T11:56:02;101791.59;;;30.37;43.76
4767;BME280;2397;53.576;9.746;2023-09-08T11:58:29;101766.09;;;30.48;41.12
4767;BME280;2397;53.576;9.746;2023-09-08T12:00:56;101769.38;;;30.50;42.59
4767;BME280;2397;53.576;9.746;2023-09-08T12:03:23;101758.06;;;30.63;41.45
4767;BME280;2397;53.576;9.746;2023-09-08T12:05:51;101760.69;;;30.53;41.25
4767;BME280;2397;53.576;9.746;2023-09-08T12:08:18;101767.28;;;30.57;41.67
4767;BME280;2397;53.576;9.746;2023-09-08T12:10:45;101757.38;;;30.51;41.51
4767;BME280;2397;53.576;9.746;2023-09-08T12:13:12;101761.78;;;30.52;41.26
4767;BME280;2397;53.576;9.746;2023-09-08T12:15:41;101761.84;;;30.62;41.35
4767;BME280;2397;53.576;9.746;2023-09-08T12:18:12;101751.66;;;30.47;40.46
4767;BME280;2397;53.576;9.746;2023-09-08T12:20:42;101749.78;;;30.53;40.52
4767;BME280;2397;53.576;9.746;2023-09-08T12:23:22;101743.25;;;30.54;39.78
4767;BME280;2397;53.576;9.746;2023-09-08T12:25:50;101746.56;;;30.56;40.57
4767;BME280;2397;53.576;9.746;2023-09-08T12:28:19;101746.13;;;30.69;41.00
4767;BME280;2397;53.576;9.746;2023-09-08T12:30:47;101743.00;;;30.82;40.94
4767;BME280;2397;53.576;9.746;2023-09-08T12:33:16;101729.88;;;30.79;39.07
4767;BME280;2397;53.576;9.746;2023-09-08T12:35:47;101717.97;;;30.90;39.01
4767;BME280;2397;53.576;9.746;2023-09-08T12:38:19;101714.41;;;30.89;37.84
4767;BME280;2397;53.576;9.746;2023-09-08T12:40:45;101711.69;;;30.89;38.24
4767;BME280;2397;53.576;9.746;2023-09-08T12:43:12;101701.06;;;30.88;37.21
4767;BME280;2397;53.576;9.746;2023-09-08T12:45:54;101702.41;;;30.85;38.19
4767;BME280;2397;53.576;9.746;2023-09-08T12:48:21;101705.97;;;30.91;38.70
4767;BME280;2397;53.576;9.746;2023-09-08T12:50:48;101688.88;;;31.00;36.88
4767;BME280;2397;53.576;9.746;2023-09-08T12:53:16;101691.84;;;30.99;37.68
4767;BME280;2397;53.576;9.746;2023-09-08T12:55:47;101678.28;;;31.04;36.49
4767;BME280;2397;53.576;9.746;2023-09-08T12:58:14;101683.28;;;31.22;37.78
4767;BME280;2397;53.576;9.746;2023-09-08T13:00:41;101687.91;;;31.21;38.00
4767;BME280;2397;53.576;9.746;2023-09-08T13:03:07;101692.53;;;31.16;38.42
4767;BME280;2397;53.576;9.746;2023-09-08T13:05:34;101681.59;;;31.11;38.03
4767;BME280;2397;53.576;9.746;2023-09-08T13:08:01;101681.63;;;31.16;38.04
4767;BME280;2397;53.576;9.746;2023-09-08T13:10:27;101678.56;;;31.07;37.55
4767;BME280;2397;53.576;9.746;2023-09-08T13:12:54;101681.09;;;31.19;37.86
4767;BME280;2397;53.576;9.746;2023-09-08T13:15:21;101669.59;;;31.17;36.98
4767;BME280;2397;53.576;9.746;2023-09-08T13:17:48;101677.84;;;31.22;39.06
4767;BME280;2397;53.576;9.746;2023-09-08T13:20:14;101668.88;;;31.26;38.02
4767;BME280;2397;53.576;9.746;2023-09-08T13:22:41;101675.72;;;31.29;38.41
4767;BME280;2397;53.576;9.746;2023-09-08T13:25:08;101654.44;;;31.31;36.42